createdAt,value
2017-11-21T00:00:43.513Z,99844.47
2017-11-21T00:01:49.270Z,99845.56
2017-11-21T00:02:54.966Z,99838.23
2017-11-21T00:04:00.670Z,99846.02
2017-11-21T00:05:07.124Z,99843.45
2017-11-21T00:06:13.583Z,99838.05
2017-11-21T00:07:20.065Z,99840.77
2017-11-21T00:08:25.764Z,99841.33
2017-11-21T00:09:31.442Z,99832.37
2017-11-21T00:10:37.126Z,99832.05
2017-11-21T00:11:42.813Z,99829.65
2017-11-21T00:12:48.534Z,99824.53
2017-11-21T00:13:54.213Z,99825.66
2017-11-21T00:14:59.906Z,99831.86
2017-11-21T00:16:05.607Z,99830.91
2017-11-21T00:17:11.299Z,99831.02
2017-11-21T00:18:17.787Z,99837.61
2017-11-21T00:19:23.481Z,99838.06
2017-11-21T00:20:29.170Z,99841.17
2017-11-21T00:21:34.897Z,99839.35
2017-11-21T00:22:40.597Z,99830.89
2017-11-21T00:23:46.328Z,99833.00
2017-11-21T00:24:52.015Z,99834.13
2017-11-21T00:25:57.502Z,99833.25
2017-11-21T00:27:03.219Z,99828.77
2017-11-21T00:28:09.231Z,99828.48
2017-11-21T00:29:14.972Z,99834.23
2017-11-21T00:30:20.674Z,99836.11
2017-11-21T00:31:26.376Z,99835.23
2017-11-21T00:32:32.064Z,99837.77
2017-11-21T00:33:37.745Z,99832.27
2017-11-21T00:34:43.756Z,99829.30
2017-11-21T00:35:49.445Z,99829.02
2017-11-21T00:36:55.151Z,99822.64
2017-11-21T00:38:00.844Z,99823.59
2017-11-21T00:39:05.868Z,99825.98
2017-11-21T00:40:11.576Z,99829.23
2017-11-21T00:41:17.285Z,99833.08
2017-11-21T00:42:22.969Z,99830.00
2017-11-21T00:43:28.662Z,99815.44
2017-11-21T00:44:34.361Z,99820.70
2017-11-21T00:45:39.911Z,99821.36
2017-11-21T00:46:45.809Z,99818.37
2017-11-21T00:47:52.572Z,99809.58
2017-11-21T00:48:58.094Z,99811.83
2017-11-21T00:50:04.362Z,99811.77
2017-11-21T00:51:09.957Z,99809.05
2017-11-21T00:52:15.641Z,99813.17
2017-11-21T00:53:22.094Z,99816.11
2017-11-21T00:54:28.551Z,99816.70
2017-11-21T00:55:35.016Z,99812.90
2017-11-21T00:56:40.756Z,99807.92
2017-11-21T00:57:47.201Z,99809.38
2017-11-21T00:58:53.660Z,99808.35
2017-11-21T01:00:00.114Z,99811.84
2017-11-21T01:01:06.578Z,99814.62
2017-11-21T01:02:13.074Z,99808.14
2017-11-21T01:03:18.774Z,99809.30
2017-11-21T01:04:25.234Z,99805.32
2017-11-21T01:05:31.697Z,99804.83
2017-11-21T01:06:38.154Z,99799.70
2017-11-21T01:07:44.640Z,99801.50
2017-11-21T01:08:50.336Z,99794.27
2017-11-21T01:09:56.046Z,99791.91
2017-11-21T01:11:01.547Z,99788.63
2017-11-21T01:12:07.225Z,99788.23
2017-11-21T01:13:12.964Z,99777.42
2017-11-21T01:14:18.654Z,99781.66
2017-11-21T01:15:25.105Z,99776.28
2017-11-21T01:16:31.870Z,99778.28
2017-11-21T01:17:38.332Z,99784.73
2017-11-21T01:18:44.812Z,99793.42
2017-11-21T01:19:50.508Z,99796.39
2017-11-21T01:20:56.224Z,99794.09
2017-11-21T01:22:01.914Z,99793.06
2017-11-21T01:23:08.369Z,99791.92
2017-11-21T01:24:14.854Z,99781.47
2017-11-21T01:25:20.532Z,99785.95
2017-11-21T01:26:26.230Z,99788.88
2017-11-21T01:27:31.584Z,99778.30
2017-11-21T01:28:37.283Z,99785.98
2017-11-21T01:29:43.002Z,99780.36
2017-11-21T01:30:49.228Z,99780.41
2017-11-21T01:31:54.921Z,99780.74
2017-11-21T01:33:01.378Z,99780.36
2017-11-21T01:34:07.824Z,99782.95
2017-11-21T01:35:14.325Z,99779.13
2017-11-21T01:36:20.033Z,99779.95
2017-11-21T01:37:26.485Z,99784.38
2017-11-21T01:38:32.178Z,99779.50
2017-11-21T01:39:37.867Z,99778.80
2017-11-21T01:40:44.337Z,99779.98
2017-11-21T01:41:50.031Z,99772.02
2017-11-21T01:42:55.729Z,99772.17
2017-11-21T01:44:01.422Z,99766.80
2017-11-21T01:45:06.929Z,99768.92
2017-11-21T01:46:12.312Z,99765.00
2017-11-21T01:47:18.777Z,99762.79
2017-11-21T01:48:24.472Z,99768.79
2017-11-21T01:49:30.162Z,99765.33
2017-11-21T01:50:35.872Z,99764.98
2017-11-21T01:51:42.356Z,99763.66
2017-11-21T01:52:48.045Z,99765.41
2017-11-21T01:53:53.738Z,99754.94
2017-11-21T01:54:59.417Z,99758.34
2017-11-21T01:56:04.915Z,99752.88
2017-11-21T01:57:10.632Z,99754.64
2017-11-21T01:58:17.093Z,99752.91
2017-11-21T01:59:23.600Z,99755.28
2017-11-21T02:00:29.296Z,99746.02
2017-11-21T02:01:35.752Z,99750.79
2017-11-21T02:02:41.915Z,99750.73
2017-11-21T02:03:47.614Z,99750.20
2017-11-21T02:04:53.310Z,99748.36
2017-11-21T02:05:59.217Z,99753.30
2017-11-21T02:07:04.808Z,99746.47
2017-11-21T02:08:10.532Z,99746.23
2017-11-21T02:09:16.301Z,99745.99
2017-11-21T02:10:22.002Z,99746.98
2017-11-21T02:11:28.063Z,99749.11
2017-11-21T02:12:33.746Z,99742.82
2017-11-21T02:13:39.462Z,99740.45
2017-11-21T02:14:45.154Z,99739.44
2017-11-21T02:15:50.826Z,99738.09
2017-11-21T02:16:56.515Z,99742.36
2017-11-21T02:18:02.222Z,99739.40
2017-11-21T02:19:07.285Z,99741.73
2017-11-21T02:20:13.987Z,99741.63
2017-11-21T02:21:19.025Z,99737.80
2017-11-21T02:22:24.394Z,99737.34
2017-11-21T02:23:29.758Z,99738.23
2017-11-21T02:24:35.912Z,99739.15
2017-11-21T02:25:41.701Z,99735.13
2017-11-21T02:26:47.068Z,99740.44
2017-11-21T02:27:52.421Z,99734.48
2017-11-21T02:28:58.550Z,99738.23
2017-11-21T02:30:04.698Z,99735.89
2017-11-21T02:31:10.047Z,99735.98
2017-11-21T02:32:16.532Z,99731.61
2017-11-21T02:33:21.567Z,99729.39
2017-11-21T02:34:26.610Z,99731.85
2017-11-21T02:35:31.994Z,99732.16
2017-11-21T02:36:37.790Z,99727.64
2017-11-21T02:37:43.787Z,99730.49
2017-11-21T02:38:49.684Z,99728.06
2017-11-21T02:39:55.863Z,99731.63
2017-11-21T02:41:01.379Z,99726.41
2017-11-21T02:42:07.067Z,99720.77
2017-11-21T02:43:12.095Z,99720.98
2017-11-21T02:44:17.129Z,99724.26
2017-11-21T02:45:22.705Z,99730.05
2017-11-21T02:46:28.418Z,99726.33
2017-11-21T02:47:33.768Z,99729.73
2017-11-21T02:48:38.813Z,99730.09
2017-11-21T02:49:44.548Z,99727.58
2017-11-21T02:50:49.921Z,99725.69
2017-11-21T02:51:54.981Z,99727.23
2017-11-21T02:53:00.338Z,99721.16
2017-11-21T02:54:05.378Z,99727.69
2017-11-21T02:55:10.415Z,99715.92
2017-11-21T02:56:15.456Z,99717.68
2017-11-21T02:57:20.499Z,99717.98
2017-11-21T02:58:25.862Z,99712.89
2017-11-21T02:59:31.545Z,99721.14
2017-11-21T03:00:37.694Z,99714.34
2017-11-21T03:01:43.394Z,99715.03
2017-11-21T03:02:49.108Z,99711.61
2017-11-21T03:03:54.806Z,99714.41
2017-11-21T03:05:01.248Z,99704.20
2017-11-21T03:06:06.935Z,99713.17
2017-11-21T03:07:12.618Z,99710.84
2017-11-21T03:08:18.334Z,99709.66
2017-11-21T03:09:24.039Z,99710.17
2017-11-21T03:10:29.719Z,99705.41
2017-11-21T03:11:35.410Z,99707.58
2017-11-21T03:12:40.201Z,99706.08
2017-11-21T03:13:45.942Z,99706.09
2017-11-21T03:14:51.633Z,99700.94
2017-11-21T03:15:57.331Z,99704.44
2017-11-21T03:17:03.585Z,99700.52
2017-11-21T03:18:09.722Z,99698.21
2017-11-21T03:19:15.446Z,99703.48
2017-11-21T03:20:37.898Z,99698.52
2017-11-21T03:22:00.524Z,99701.30
2017-11-21T03:23:23.090Z,99702.60
2017-11-21T03:24:46.562Z,99706.25
2017-11-21T03:26:09.203Z,99698.22
2017-11-21T03:27:16.923Z,99707.67
2017-11-21T03:28:43.129Z,99707.95
2017-11-21T03:29:48.517Z,99703.91
2017-11-21T03:30:54.315Z,99702.68
2017-11-21T03:32:00.014Z,99701.91
2017-11-21T03:33:06.480Z,99706.72
2017-11-21T03:34:12.933Z,99710.33
2017-11-21T03:35:18.642Z,99703.87
2017-11-21T03:36:24.005Z,99709.14
2017-11-21T03:37:29.217Z,99703.75
2017-11-21T03:38:34.570Z,99703.98
2017-11-21T03:39:40.257Z,99709.55
2017-11-21T03:40:46.045Z,99706.94
2017-11-21T03:41:51.733Z,99702.66
2017-11-21T03:42:57.431Z,99704.92
2017-11-21T03:44:03.885Z,99709.81
2017-11-21T03:45:10.364Z,99708.43
2017-11-21T03:46:15.430Z,99703.20
2017-11-21T03:47:21.123Z,99704.43
2017-11-21T03:48:26.810Z,99700.16
2017-11-21T03:49:32.534Z,99695.91
2017-11-21T03:50:38.246Z,99700.77
2017-11-21T03:51:44.734Z,99698.30
2017-11-21T03:52:49.754Z,99698.02
2017-11-21T03:53:55.445Z,99700.09
2017-11-21T03:55:01.130Z,99701.55
2017-11-21T03:56:06.826Z,99698.70
2017-11-21T03:57:12.548Z,99702.27
2017-11-21T03:58:18.245Z,99689.84
2017-11-21T03:59:23.942Z,99687.95
2017-11-21T04:00:28.728Z,99695.00
2017-11-21T04:01:34.736Z,99695.95
2017-11-21T04:02:41.218Z,99693.88
2017-11-21T04:03:46.710Z,99697.98
2017-11-21T04:04:53.159Z,99695.06
2017-11-21T04:05:58.849Z,99693.67
2017-11-21T04:07:04.381Z,99691.44
2017-11-21T04:08:10.122Z,99697.44
2017-11-21T04:09:15.826Z,99692.23
2017-11-21T04:10:21.531Z,99688.68
2017-11-21T04:11:27.226Z,99690.14
2017-11-21T04:12:33.685Z,99688.19
2017-11-21T04:13:39.417Z,99690.31
2017-11-21T04:14:46.086Z,99685.02
2017-11-21T04:15:52.548Z,99687.23
2017-11-21T04:16:59.001Z,99690.00
2017-11-21T04:18:05.449Z,99688.69
2017-11-21T04:19:11.934Z,99685.41
2017-11-21T04:20:17.629Z,99692.38
2017-11-21T04:21:23.320Z,99684.81
2017-11-21T04:22:29.022Z,99690.50
2017-11-21T04:23:34.714Z,99690.56
2017-11-21T04:24:40.426Z,99687.39
2017-11-21T04:25:46.139Z,99690.98
2017-11-21T04:26:51.848Z,99682.28
2017-11-21T04:27:57.525Z,99684.33
2017-11-21T04:29:04.009Z,99686.20
2017-11-21T04:30:09.720Z,99686.28
2017-11-21T04:31:15.410Z,99683.89
2017-11-21T04:32:20.778Z,99684.59
2017-11-21T04:33:26.514Z,99686.17
2017-11-21T04:34:32.202Z,99681.59
2017-11-21T04:35:37.920Z,99684.76
2017-11-21T04:36:43.629Z,99678.93
2017-11-21T04:37:49.319Z,99685.16
2017-11-21T04:38:54.682Z,99679.77
2017-11-21T04:40:00.165Z,99678.45
2017-11-21T04:41:06.645Z,99675.48
2017-11-21T04:42:12.342Z,99676.92
2017-11-21T04:43:18.030Z,99680.26
2017-11-21T04:44:23.393Z,99676.45
2017-11-21T04:45:29.093Z,99669.06
2017-11-21T04:46:35.593Z,99677.44
2017-11-21T04:47:41.293Z,99663.50
2017-11-21T04:48:46.994Z,99664.32
2017-11-21T04:49:52.975Z,99663.02
2017-11-21T04:50:58.658Z,99661.92
2017-11-21T04:52:04.366Z,99671.29
2017-11-21T04:53:10.061Z,99670.97
2017-11-21T04:54:15.751Z,99666.12
2017-11-21T04:55:21.241Z,99662.66
2017-11-21T04:56:26.942Z,99667.25
2017-11-21T04:57:32.653Z,99670.17
2017-11-21T04:58:38.340Z,99663.16
2017-11-21T04:59:44.031Z,99667.15
2017-11-21T05:00:49.741Z,99663.81
2017-11-21T05:01:55.425Z,99669.77
2017-11-21T05:03:01.149Z,99674.47
2017-11-21T05:04:07.607Z,99668.50
2017-11-21T05:05:13.301Z,99670.88
2017-11-21T05:06:18.994Z,99676.45
2017-11-21T05:07:24.682Z,99662.92
2017-11-21T05:08:30.420Z,99660.25
2017-11-21T05:09:36.296Z,99663.27
2017-11-21T05:10:42.754Z,99668.77
2017-11-21T05:11:49.217Z,99658.54
2017-11-21T05:12:54.903Z,99669.86
2017-11-21T05:14:00.618Z,99670.70
2017-11-21T05:15:07.074Z,99670.16
2017-11-21T05:16:12.098Z,99661.25
2017-11-21T05:17:17.801Z,99665.31
2017-11-21T05:18:23.551Z,99664.05
2017-11-21T05:19:29.260Z,99661.55
2017-11-21T05:20:34.720Z,99655.16
2017-11-21T05:21:40.861Z,99664.08
2017-11-21T05:22:45.912Z,99657.95
2017-11-21T05:23:52.372Z,99661.42
2017-11-21T05:24:58.317Z,99657.48
2017-11-21T05:26:04.778Z,99660.41
2017-11-21T05:27:11.249Z,99658.77
2017-11-21T05:28:16.936Z,99652.00
2017-11-21T05:29:22.635Z,99652.81
2017-11-21T05:30:28.020Z,99658.80
2017-11-21T05:31:33.376Z,99652.05
2017-11-21T05:32:55.866Z,99661.34
2017-11-21T05:34:01.564Z,99663.80
2017-11-21T05:35:08.018Z,99664.27
2017-11-21T05:36:14.259Z,99664.70
2017-11-21T05:37:19.962Z,99653.31
2017-11-21T05:38:25.645Z,99655.59
2017-11-21T05:39:32.108Z,99662.45
2017-11-21T05:40:38.593Z,99661.90
2017-11-21T05:41:44.311Z,99665.63
2017-11-21T05:42:50.767Z,99662.41
2017-11-21T05:43:56.457Z,99658.47
2017-11-21T05:45:02.177Z,99660.72
2017-11-21T05:46:07.536Z,99659.28
2017-11-21T05:47:13.247Z,99661.10
2017-11-21T05:48:18.947Z,99666.98
2017-11-21T05:49:24.305Z,99669.39
2017-11-21T05:50:29.331Z,99665.37
2017-11-21T05:51:34.689Z,99675.44
2017-11-21T05:52:40.062Z,99668.59
2017-11-21T05:53:45.749Z,99673.16
2017-11-21T05:54:51.428Z,99668.63
2017-11-21T05:55:58.628Z,99678.77
2017-11-21T05:57:05.101Z,99678.70
2017-11-21T05:58:11.590Z,99675.19
2017-11-21T05:59:17.286Z,99672.44
2017-11-21T06:00:23.753Z,99668.51
2017-11-21T06:01:30.210Z,99670.41
2017-11-21T06:02:36.017Z,99667.07
2017-11-21T06:03:41.737Z,99669.14
2017-11-21T06:04:47.426Z,99678.44
2017-11-21T06:05:53.897Z,99675.48
2017-11-21T06:06:59.625Z,99683.56
2017-11-21T06:08:06.126Z,99683.35
2017-11-21T06:09:11.961Z,99681.57
2017-11-21T06:10:17.678Z,99677.08
2017-11-21T06:11:23.424Z,99680.89
2017-11-21T06:12:29.125Z,99677.52
2017-11-21T06:13:34.891Z,99679.45
2017-11-21T06:14:41.393Z,99675.52
2017-11-21T06:15:47.093Z,99680.55
2017-11-21T06:16:53.578Z,99678.06
2017-11-21T06:17:59.460Z,99681.06
2017-11-21T06:19:05.150Z,99686.19
2017-11-21T06:20:10.861Z,99689.27
2017-11-21T06:21:17.001Z,99685.04
2017-11-21T06:22:22.701Z,99684.74
2017-11-21T06:23:28.383Z,99683.27
2017-11-21T06:24:34.066Z,99676.20
2017-11-21T06:25:39.793Z,99684.33
2017-11-21T06:26:46.297Z,99683.35
2017-11-21T06:27:51.990Z,99691.05
2017-11-21T06:28:58.454Z,99690.54
2017-11-21T06:30:04.138Z,99693.72
2017-11-21T06:31:09.864Z,99693.72
2017-11-21T06:32:15.555Z,99693.07
2017-11-21T06:33:22.075Z,99690.08
2017-11-21T06:34:27.814Z,99694.39
2017-11-21T06:35:33.512Z,99694.34
2017-11-21T06:36:39.857Z,99695.02
2017-11-21T06:37:46.315Z,99700.23
2017-11-21T06:38:52.839Z,99698.78
2017-11-21T06:39:58.533Z,99694.43
2017-11-21T06:41:04.240Z,99700.48
2017-11-21T06:42:10.736Z,99694.18
2017-11-21T06:43:16.426Z,99697.56
2017-11-21T06:44:22.112Z,99695.66
2017-11-21T06:45:27.817Z,99699.05
2017-11-21T06:46:33.517Z,99705.86
2017-11-21T06:47:39.266Z,99696.80
2017-11-21T06:48:44.951Z,99702.90
2017-11-21T06:49:50.663Z,99707.72
2017-11-21T06:50:56.356Z,99706.19
2017-11-21T06:52:01.735Z,99701.16
2017-11-21T06:53:07.463Z,99704.49
2017-11-21T06:54:13.259Z,99697.56
2017-11-21T06:55:19.721Z,99701.88
2017-11-21T06:56:26.342Z,99701.33
2017-11-21T06:57:32.043Z,99708.60
2017-11-21T06:58:37.557Z,99713.64
2017-11-21T06:59:43.260Z,99715.41
2017-11-21T07:00:49.752Z,99721.17
2017-11-21T07:01:55.440Z,99713.30
2017-11-21T07:03:00.802Z,99712.12
2017-11-21T07:04:06.513Z,99717.31
2017-11-21T07:05:12.218Z,99714.70
2017-11-21T07:06:17.241Z,99716.02
2017-11-21T07:07:22.984Z,99719.05
2017-11-21T07:08:28.780Z,99718.72
2017-11-21T07:09:35.625Z,99724.34
2017-11-21T07:10:41.530Z,99718.05
2017-11-21T07:11:47.556Z,99719.19
2017-11-21T07:12:54.028Z,99723.80
2017-11-21T07:14:00.510Z,99721.72
2017-11-21T07:15:07.256Z,99722.48
2017-11-21T07:16:13.705Z,99728.58
2017-11-21T07:17:20.315Z,99725.53
2017-11-21T07:18:26.029Z,99728.49
2017-11-21T07:19:31.709Z,99731.23
2017-11-21T07:20:37.600Z,99719.69
2017-11-21T07:21:44.167Z,99723.92
2017-11-21T07:22:50.621Z,99722.56
2017-11-21T07:23:56.133Z,99725.78
2017-11-21T07:25:01.837Z,99719.65
2017-11-21T07:26:07.589Z,99726.55
2017-11-21T07:27:13.292Z,99724.38
2017-11-21T07:28:19.387Z,99726.50
2017-11-21T07:29:25.083Z,99728.23
2017-11-21T07:30:32.081Z,99727.90
2017-11-21T07:31:37.788Z,99735.13
2017-11-21T07:32:43.542Z,99728.15
2017-11-21T07:33:49.194Z,99733.65
2017-11-21T07:34:54.897Z,99733.44
2017-11-21T07:36:00.720Z,99733.95
2017-11-21T07:37:06.442Z,99736.78
2017-11-21T07:38:12.141Z,99732.63
2017-11-21T07:39:17.830Z,99734.80
2017-11-21T07:40:23.686Z,99738.39
2017-11-21T07:41:29.628Z,99738.98
2017-11-21T07:42:36.118Z,99740.00
2017-11-21T07:43:41.814Z,99745.97
2017-11-21T07:44:47.502Z,99739.91
2017-11-21T07:45:53.186Z,99745.80
2017-11-21T07:46:58.873Z,99748.30
2017-11-21T07:48:04.592Z,99743.89
2017-11-21T07:49:11.044Z,99748.04
2017-11-21T07:50:16.733Z,99750.41
2017-11-21T07:51:22.489Z,99746.59
2017-11-21T07:52:28.457Z,99747.30
2017-11-21T07:53:34.439Z,99745.52
2017-11-21T07:54:41.098Z,99745.05
2017-11-21T07:55:47.631Z,99746.75
2017-11-21T07:56:54.381Z,99744.00
2017-11-21T07:58:00.421Z,99748.71
2017-11-21T07:59:06.160Z,99749.00
2017-11-21T08:00:11.854Z,99746.46
2017-11-21T08:01:17.559Z,99745.99
2017-11-21T08:02:24.025Z,99742.64
2017-11-21T08:03:29.729Z,99742.50
2017-11-21T08:04:35.449Z,99741.45
2017-11-21T08:05:40.815Z,99745.47
2017-11-21T08:06:46.506Z,99747.13
2017-11-21T08:07:52.221Z,99746.41
2017-11-21T08:08:57.909Z,99740.11
2017-11-21T08:10:03.440Z,99743.23
2017-11-21T08:11:08.799Z,99742.00
2017-11-21T08:12:14.154Z,99740.22
2017-11-21T08:13:19.834Z,99748.98
2017-11-21T08:14:25.630Z,99744.29
2017-11-21T08:15:33.950Z,99740.56
2017-11-21T08:16:39.731Z,99749.70
2017-11-21T08:17:45.128Z,99749.36
2017-11-21T08:18:52.802Z,99748.94
2017-11-21T08:19:58.713Z,99750.96
2017-11-21T08:21:05.574Z,99751.72
2017-11-21T08:22:13.731Z,99757.31
2017-11-21T08:23:21.525Z,99749.02
2017-11-21T08:24:27.593Z,99754.34
2017-11-21T08:25:33.555Z,99748.84
2017-11-21T08:26:39.458Z,99755.34
2017-11-21T08:27:46.212Z,99752.11
2017-11-21T08:28:52.898Z,99755.23
2017-11-21T08:29:58.856Z,99758.17
2017-11-21T08:31:04.770Z,99750.40
2017-11-21T08:32:14.937Z,99755.72
2017-11-21T08:33:22.185Z,99750.22
2017-11-21T08:34:32.229Z,99743.50
2017-11-21T08:35:40.825Z,99747.19
2017-11-21T08:36:50.821Z,99751.13
2017-11-21T08:37:56.684Z,99745.67
2017-11-21T08:39:02.430Z,99749.77
2017-11-21T08:40:08.770Z,99748.02
2017-11-21T08:41:14.566Z,99746.34
2017-11-21T08:42:21.082Z,99750.95
2017-11-21T08:43:27.016Z,99745.88
2017-11-21T08:44:32.931Z,99749.13
2017-11-21T08:45:39.275Z,99749.83
2017-11-21T08:46:47.086Z,99756.13
2017-11-21T08:47:52.957Z,99756.63
2017-11-21T08:48:58.954Z,99756.57
2017-11-21T08:50:04.867Z,99751.28
2017-11-21T08:51:10.756Z,99751.42
2017-11-21T08:52:17.474Z,99743.25
2017-11-21T08:53:23.440Z,99750.60
2017-11-21T08:54:30.227Z,99745.12
2017-11-21T08:55:36.197Z,99741.55
2017-11-21T08:56:42.133Z,99746.22
2017-11-21T08:57:48.829Z,99744.63
2017-11-21T08:58:54.726Z,99751.81
2017-11-21T09:00:01.227Z,99742.89
2017-11-21T09:01:06.940Z,99748.71
2017-11-21T09:02:12.652Z,99741.54
2017-11-21T09:03:19.137Z,99754.53
2017-11-21T09:04:24.986Z,99742.72
2017-11-21T09:05:30.918Z,99744.59
2017-11-21T09:06:36.796Z,99749.30
2017-11-21T09:07:42.526Z,99748.41
2017-11-21T09:08:48.258Z,99746.02
2017-11-21T09:09:54.221Z,99754.47
2017-11-21T09:11:00.248Z,99756.52
2017-11-21T09:12:06.131Z,99753.24
2017-11-21T09:13:12.143Z,99758.14
2017-11-21T09:14:18.080Z,99752.65
2017-11-21T09:15:24.001Z,99758.53
2017-11-21T09:16:30.519Z,99761.41
2017-11-21T09:17:36.278Z,99760.94
2017-11-21T09:18:42.094Z,99766.48
2017-11-21T09:19:47.889Z,99775.61
2017-11-21T09:20:53.594Z,99772.48
2017-11-21T09:21:59.651Z,99774.36
2017-11-21T09:23:05.614Z,99771.03
2017-11-21T09:24:11.554Z,99775.31
2017-11-21T09:25:17.603Z,99780.34
2017-11-21T09:26:23.479Z,99778.01
2017-11-21T09:27:29.421Z,99773.75
2017-11-21T09:28:35.414Z,99776.81
2017-11-21T09:29:41.310Z,99775.75
2017-11-21T09:30:47.845Z,99777.53
2017-11-21T09:31:53.554Z,99780.03
2017-11-21T09:33:00.054Z,99778.95
2017-11-21T09:34:06.266Z,99783.34
2017-11-21T09:35:12.740Z,99781.42
2017-11-21T09:36:18.493Z,99784.91
2017-11-21T09:37:24.529Z,99781.10
2017-11-21T09:38:30.283Z,99786.42
2017-11-21T09:39:36.570Z,99784.62
2017-11-21T09:40:42.395Z,99787.45
2017-11-21T09:41:48.251Z,99784.77
2017-11-21T09:42:54.152Z,99780.20
2017-11-21T09:44:00.773Z,99788.07
2017-11-21T09:45:06.731Z,99792.07
2017-11-21T09:46:13.469Z,99787.68
2017-11-21T09:47:19.245Z,99790.55
2017-11-21T09:48:25.001Z,99790.73
2017-11-21T09:49:31.643Z,99793.84
2017-11-21T09:50:37.973Z,99792.39
2017-11-21T09:51:44.014Z,99786.33
2017-11-21T09:52:50.810Z,99790.83
2017-11-21T09:53:57.508Z,99789.62
2017-11-21T09:55:03.341Z,99791.44
2017-11-21T09:56:09.118Z,99788.53
2017-11-21T09:57:15.108Z,99793.73
2017-11-21T09:58:21.969Z,99791.44
2017-11-21T09:59:29.080Z,99792.05
2017-11-21T10:00:34.903Z,99794.41
2017-11-21T10:01:40.618Z,99784.10
2017-11-21T10:02:46.125Z,99788.52
2017-11-21T10:03:51.877Z,99796.86
2017-11-21T10:04:57.809Z,99788.72
2017-11-21T10:06:03.558Z,99791.58
2017-11-21T10:07:09.276Z,99788.39
2017-11-21T10:08:14.710Z,99788.91
2017-11-21T10:09:20.430Z,99791.50
2017-11-21T10:10:27.419Z,99782.41
2017-11-21T10:11:33.160Z,99787.92
2017-11-21T10:12:38.858Z,99790.88
2017-11-21T10:13:44.572Z,99795.78
2017-11-21T10:14:50.281Z,99792.94
2017-11-21T10:15:55.982Z,99785.71
2017-11-21T10:17:01.385Z,99785.85
2017-11-21T10:18:07.207Z,99787.45
2017-11-21T10:19:13.339Z,99785.38
2017-11-21T10:20:20.248Z,99792.16
2017-11-21T10:21:26.350Z,99799.00
2017-11-21T10:22:31.931Z,99795.56
2017-11-21T10:23:37.638Z,99791.02
2017-11-21T10:24:44.033Z,99790.73
2017-11-21T10:25:50.010Z,99796.39
2017-11-21T10:26:55.721Z,99798.22
2017-11-21T10:28:02.138Z,99788.91
2017-11-21T10:29:09.066Z,99788.16
2017-11-21T10:30:14.766Z,99792.02
2017-11-21T10:31:20.948Z,99782.46
2017-11-21T10:32:27.214Z,99790.45
2017-11-21T10:33:33.096Z,99788.71
2017-11-21T10:34:38.933Z,99783.64
2017-11-21T10:35:45.636Z,99789.19
2017-11-21T10:36:51.351Z,99787.17
2017-11-21T10:37:57.231Z,99790.76
2017-11-21T10:39:03.034Z,99789.89
2017-11-21T10:40:08.735Z,99789.71
2017-11-21T10:41:14.114Z,99782.94
2017-11-21T10:42:19.851Z,99781.76
2017-11-21T10:43:25.905Z,99784.20
2017-11-21T10:44:31.618Z,99783.45
2017-11-21T10:45:38.086Z,99785.28
2017-11-21T10:46:44.826Z,99779.55
2017-11-21T10:47:51.298Z,99773.50
2017-11-21T10:48:57.776Z,99785.71
2017-11-21T10:50:03.510Z,99778.66
2017-11-21T10:51:09.970Z,99774.71
2017-11-21T10:52:15.702Z,99770.53
2017-11-21T10:53:22.200Z,99778.77
2017-11-21T10:54:28.118Z,99778.01
2017-11-21T10:55:33.941Z,99779.61
2017-11-21T10:56:40.214Z,99781.30
2017-11-21T10:57:45.420Z,99776.95
2017-11-21T10:58:51.130Z,99773.95
2017-11-21T10:59:56.838Z,99772.41
2017-11-21T11:01:01.942Z,99774.80
2017-11-21T11:02:07.769Z,99768.59
2017-11-21T11:03:13.133Z,99767.25
2017-11-21T11:04:18.198Z,99763.78
2017-11-21T11:05:23.374Z,99770.84
2017-11-21T11:06:28.913Z,99778.22
2017-11-21T11:07:34.097Z,99773.50
2017-11-21T11:08:39.138Z,99771.86
2017-11-21T11:09:44.759Z,99775.41
2017-11-21T11:10:50.835Z,99771.41
2017-11-21T11:11:56.117Z,99770.75
2017-11-21T11:13:01.358Z,99761.57
2017-11-21T11:14:07.414Z,99768.87
2017-11-21T11:15:16.503Z,99765.23
2017-11-21T11:16:25.317Z,99771.45
2017-11-21T11:17:34.488Z,99766.28
2017-11-21T11:18:40.552Z,99767.86
2017-11-21T11:20:47.049Z,99763.55
2017-11-21T11:21:53.079Z,99766.52
2017-11-21T11:22:58.958Z,99760.11
2017-11-21T11:24:04.012Z,99761.23
2017-11-21T11:25:09.636Z,99765.19
2017-11-21T11:26:15.300Z,99758.51
2017-11-21T11:27:20.918Z,99768.28
2017-11-21T11:28:26.315Z,99762.58
2017-11-21T11:29:31.346Z,99769.06
2017-11-21T11:30:37.976Z,99760.69
2017-11-21T11:31:45.525Z,99762.63
2017-11-21T11:32:51.902Z,99759.64
2017-11-21T11:33:57.316Z,99759.17
2017-11-21T11:35:02.952Z,99758.75
2017-11-21T11:36:09.399Z,99757.24
2017-11-21T11:37:16.080Z,99754.46
2017-11-21T11:38:21.270Z,99755.75
2017-11-21T11:39:26.799Z,99761.07
2017-11-21T11:40:32.548Z,99755.03
2017-11-21T11:41:39.300Z,99760.02
2017-11-21T11:42:46.856Z,99755.87
2017-11-21T11:43:52.993Z,99749.91
2017-11-21T11:45:01.162Z,99750.80
2017-11-21T11:46:08.721Z,99748.87
2017-11-21T11:47:16.518Z,99746.94
2017-11-21T11:48:22.368Z,99743.00
2017-11-21T11:49:29.456Z,99756.53
2017-11-21T11:50:36.993Z,99757.19
2017-11-21T11:51:46.221Z,99748.58
2017-11-21T11:52:54.482Z,99748.45
2017-11-21T11:54:00.067Z,99750.80
2017-11-21T11:55:05.121Z,99752.84
2017-11-21T11:56:11.013Z,99750.08
2017-11-21T11:57:16.508Z,99747.55
2017-11-21T11:58:23.229Z,99745.95
2017-11-21T11:59:31.361Z,99748.48
2017-11-21T12:00:39.191Z,99745.02
2017-11-21T12:01:44.598Z,99747.45
2017-11-21T12:02:49.634Z,99746.06
2017-11-21T12:03:54.739Z,99747.41
2017-11-21T12:05:01.303Z,99751.94
2017-11-21T12:06:09.003Z,99742.75
2017-11-21T12:07:14.708Z,99741.39
2017-11-21T12:08:19.587Z,99750.38
2017-11-21T12:09:25.490Z,99744.70
2017-11-21T12:10:30.543Z,99735.23
2017-11-21T12:11:35.585Z,99735.19
2017-11-21T12:12:40.677Z,99738.65
2017-11-21T12:13:45.754Z,99737.11
2017-11-21T12:14:51.645Z,99735.28
2017-11-21T12:15:56.680Z,99740.46
2017-11-21T12:17:01.779Z,99743.09
2017-11-21T12:18:06.841Z,99737.47
2017-11-21T12:19:12.251Z,99742.16
2017-11-21T12:20:17.545Z,99746.84
2017-11-21T12:21:23.106Z,99746.91
2017-11-21T12:22:28.740Z,99744.05
2017-11-21T12:23:34.342Z,99742.33
2017-11-21T12:24:39.271Z,99740.64
2017-11-21T12:25:45.164Z,99746.81
2017-11-21T12:26:50.271Z,99742.45
2017-11-21T12:27:56.082Z,99740.97
2017-11-21T12:29:01.398Z,99738.41
2017-11-21T12:30:08.047Z,99736.77
2017-11-21T12:31:14.403Z,99733.81
2017-11-21T12:32:22.158Z,99735.05
2017-11-21T12:33:29.553Z,99738.80
2017-11-21T12:34:37.108Z,99740.44
2017-11-21T12:35:44.347Z,99740.53
2017-11-21T12:36:49.788Z,99734.64
2017-11-21T12:37:55.460Z,99740.79
2017-11-21T12:39:01.433Z,99736.67
2017-11-21T12:40:06.951Z,99737.73
2017-11-21T12:41:13.231Z,99738.66
2017-11-21T12:42:18.477Z,99733.27
2017-11-21T12:43:23.821Z,99741.31
2017-11-21T12:44:29.214Z,99727.41
2017-11-21T12:45:34.730Z,99732.69
2017-11-21T12:46:41.067Z,99735.47
2017-11-21T12:47:49.163Z,99736.56
2017-11-21T12:48:55.726Z,99743.91
2017-11-21T12:50:01.574Z,99735.55
2017-11-21T12:51:09.167Z,99735.13
2017-11-21T12:52:15.051Z,99739.47
2017-11-21T12:53:21.393Z,99738.59
2017-11-21T12:54:27.268Z,99734.80
2017-11-21T12:55:32.992Z,99737.58
2017-11-21T12:56:39.362Z,99734.86
2017-11-21T12:57:46.404Z,99735.72